Extreme weather reports worldwide

Thunderstorm

Station
 
Location
 
Name
 
Wind
Knots
Gust
Knots
Vis
SM
Temp/Dew
C
Baro
inHg
METAR
 
SVC KSVC Silver City, US Grant County Airport 20 26 10 19/9 30.15 KSVC 262215Z AUTO 28020G26KT 10SM VCTS SCT050 SCT060 SCT080 19/10 A3015 RMK AO2 LTG DSNT SW THRU N T01900097
TCS KTCS Truth Or Consequences, US Truth Or Consequences Municipal Airport 9 19 10 22/9 30.08 KTCS 262220Z AUTO 34009G19KT 10SM TS SCT049 BKN060 OVC100 22/09 A3008 RMK AO2 LTG DSNT NE AND E TSB14 T02220094 $
TEX KTEX Telluride, US Telluride Regional Airport 11 16 10 17/2 30.32 KTEX 262215Z AUTO 25011G16KT 10SM VCTS SCT070 OVC090 17/02 A3032 RMK AO2 LTG DSNT S AND W
UBA SBUR Uberaba, BR Mário de Almeida Franco Airport 28 0.56 / 30.18 SBUR 262200Z 18028KT 0900 +TSRA BKN009 SCT023 BKN030CB 16/// Q1022
MXJ DNMN Minna, NG Minna Airport 14 6.21 26/24 29.97 DNMN 262200Z 16014KT 9999 TS SCT010 FEW020CB 26/24 Q1015

Station
 
Location
 
Name
 
Wind
Knots
Gust
Knots
Vis
SM
Temp/Dew
C
Baro
inHg
METAR
 
GSJ MGSJ Puerto San José, GT San José Airport 10 6.21 31/25 29.85 MGSJ 262200Z 17010KT 9999 TS SCT030CB 31/25 Q1011 A2985 CB/TS NNE CB SMC N
HPH VVCI Haiphong, VN Cat Bi International Airport 10 6.21 24/24 29.85 VVCI 262200Z 26010KT 220V290 9999 -RA VCTS BKN006 FEW027CB 24/24 Q1011 TEMPO 4000 TSRA
QPS SBYS Pirassununga, BR Campo Fontenelle Airport 10 6.21 23/15 30.06 SBYS 262200Z 33010KT 9999 VCTS SCT030 FEW050CB SCT090 23/15 Q1018 RETS
VOVZ 9 1.99 26/26 29.32 VOVZ 262200Z 18009KT 3200 -TSRA SCT008 FEW025CB BKN012 OVC070 26/26 Q0993 TEMPO 2000 -TSRA
MHNO 8 1.24 23/21 MHNO 262200Z 18008KT 2000 -TSRA SCT038TCU SCT040CB 23/21
CMW MUCM Camaguey, CU Ignacio Agramonte International Airport 8 4.97 27/23 29.94 MUCM 262151Z 35008KT 8000 TS SCT018CB BKN025 27/23 Q1014
KBRG 7 10 23/5 30.10 KBRG 262215Z AUTO 25007KT 10SM VCTS SCT090 SCT110 23/06 A3010 RMK AO2 LTG DSNT SE W AND NW T02300058
CGR SBCG Campo Grande, BR Campo Grande Airport 6 4.97 21/18 30.06 SBCG 262200Z 11006KT 8000 -TSRA FEW045 FEW050CB BKN100 21/18 Q1018
MGES Esquipulas, GT Esquipulas Airport 6 6.21 26/19 MGES 262200Z 03006KT 9999 TS SCT018 FEW025CB SCT090 26/19 QFE 909.1 CB/TS SE/SSE CB ENE
KAEG Albuquerque, US Double Eagle II Airport 6 10 23/8 30.13 KAEG 262150Z 22006KT 10SM VCTS BKN070 BKN110 23/08 A3013 RMK LTG DSNT NW
KJTC 5 10 15/10 30.20 KJTC 262215Z AUTO 02005KT 10SM TS FEW013 SCT022 SCT035 15/10 A3020 RMK AO2 LTG DSNT N-E
STM SBSN Santarém, BR Maestro Wilson Fonseca Airport 5 6.21 30/21 29.82 SBSN 262200Z 11005KT 9999 VCTS FEW027CB 30/21 Q1010
MNCH Chinandega, NI Chinandega Airport 4 6.21 30/26 29.82 MNCH 262200Z 19004KT 9999 -TS FEW024CB SCT025TCU 30/26 Q1010 CB/N/NW TCU/SW/W
MGTU 4 6.21 32/21 MGTU 262200Z 16004KT 9999 TS FEW018 FEW020CB 32/21 CB/TS N/NNE/NE/ENE
RER MGRT Retalhuleu, GT Retalhuleu Airport 4 6.21 31/26 29.94 MGRT 262200Z 36004KT 9999 TS BKN018 FEW025CB 31/26 Q1014 A2994 CB/TS/PCPN E/ESE VOL. SANTA MARIA Y SANTIAGUITO EN ACTIVIDAD
MGMT 4 6.21 32/25 MGMT 262200Z 18004KT 9999 TS FEW015TCU FEW025CB 32/25 CB/TS E/NNW TCU N/NNE
NSI FKYS Yaoundé, CM Yaoundé Nsimalen International Airport 4 4.97 22/21 30.09 FKYS 262200Z 29004KT 250V310 8000 TS BKN010 FEW020CB 22/21 Q1019 NOSIG
HAJ EDDV Hannover, DE Hannover Airport 4 3.73 18/17 30.00 EDDV 262220Z 26004KT 230V300 6000 2500SE +TSRA FEW028 SCT048CB 18/17 Q1016
KCPW 3 10 8/2 30.53 KCPW 262215Z AUTO 21003KT 10SM VCTS BKN090 08/02 A3053 RMK AO2 LTG DSNT S AND SW
KBR WMKC Kota Baharu, MY Sultan Ismail Petra Airport 3 4.97 25/24 29.76 WMKC 262200Z 19003KT 120V250 8000 -TSRA FEW008 FEW017CB SCT020 25/24 Q1008
COO DBBB Cotonou, BJ Cadjehoun Airport 3 4.97 26/24 29.91 DBBB 262200Z 25003KT 8000 TS SCT011 FEW021CB 26/24 Q1013 TEMPO 4000 TSRA BKN009 FEW020CB
MHCH 2 6.21 25/24 MHCH 262200Z VRB02KT 9999 TS FEW030TCU FEW032CB BKN070 25/24
OXB GGOV Bissau, GW Osvaldo Vieira International Airport 2 4.97 24/23 29.91 GGOV 262200Z VRB02KT 8000 TS FEW014 FEW020CB 24/23 Q1013 NOSIG
BGF FEFF Bangui, CF Bangui M'Poko International Airport 2 3.73 24/22 29.88 FEFF 262200Z VRB02KT 6000 TS FEW010 FEW033CB 24/22 Q1012 NOSIG
ABV DNAA Abuja, NG Nnamdi Azikiwe International Airport 2 6.21 25/23 29.97 DNAA 262200Z 08002KT 9999 TS FEW009 FEW020CB 25/23 Q1015 NOSIG
GNT KGNT Grants, US Grants-Milan Municipal Airport 0 10 18/9 30.18 KGNT 262215Z AUTO 00000KT 10SM VCTS SCT065 SCT075 SCT095 19/09 A3018 RMK AO2 LTG DSNT ALQS T01890092
TFF SBTF Tefé, BR Tefé Airport 6.21 27/25 29.88 SBTF 262145Z /////KT 9999 -TSRA FEW012 FEW025CB BKN080 27/25 Q1012